sensor_id;sensor_type;location;lat;lon;timestamp;P1;durP1;ratioP1;P2;durP2;ratioP2
40595;SDS011;26304;48.794;9.820;2022-12-18T00:01:37;8.57;;;7.88;;
40595;SDS011;26304;48.794;9.820;2022-12-18T00:07:19;8.55;;;7.75;;
40595;SDS011;26304;48.794;9.820;2022-12-18T00:13:02;8.15;;;7.45;;
40595;SDS011;26304;48.794;9.820;2022-12-18T00:18:46;7.45;;;6.85;;
40595;SDS011;26304;48.794;9.820;2022-12-18T00:24:29;7.13;;;6.53;;
40595;SDS011;26304;48.794;9.820;2022-12-18T00:30:11;7.30;;;6.60;;
40595;SDS011;26304;48.794;9.820;2022-12-18T00:35:55;7.38;;;6.75;;
40595;SDS011;26304;48.794;9.820;2022-12-18T00:41:42;7.28;;;6.57;;
40595;SDS011;26304;48.794;9.820;2022-12-18T00:47:42;7.82;;;7.13;;
40595;SDS011;26304;48.794;9.820;2022-12-18T00:53:26;7.68;;;6.97;;
40595;SDS011;26304;48.794;9.820;2022-12-18T00:59:08;7.63;;;6.93;;
40595;SDS011;26304;48.794;9.820;2022-12-18T01:04:50;8.20;;;7.50;;
40595;SDS011;26304;48.794;9.820;2022-12-18T01:10:34;7.28;;;6.68;;
40595;SDS011;26304;48.794;9.820;2022-12-18T01:16:17;7.17;;;6.47;;
40595;SDS011;26304;48.794;9.820;2022-12-18T01:21:59;6.63;;;6.03;;
40595;SDS011;26304;48.794;9.820;2022-12-18T01:27:43;7.03;;;6.43;;
40595;SDS011;26304;48.794;9.820;2022-12-18T01:33:25;6.82;;;6.22;;
40595;SDS011;26304;48.794;9.820;2022-12-18T01:39:09;6.53;;;6.03;;
40595;SDS011;26304;48.794;9.820;2022-12-18T01:45:00;6.35;;;5.75;;
40595;SDS011;26304;48.794;9.820;2022-12-18T01:50:44;6.53;;;5.93;;
40595;SDS011;26304;48.794;9.820;2022-12-18T01:56:27;6.00;;;5.50;;
40595;SDS011;26304;48.794;9.820;2022-12-18T02:02:11;6.68;;;5.97;;
40595;SDS011;26304;48.794;9.820;2022-12-18T02:07:56;6.60;;;6.03;;
40595;SDS011;26304;48.794;9.820;2022-12-18T02:13:50;6.95;;;6.28;;
40595;SDS011;26304;48.794;9.820;2022-12-18T02:19:42;5.60;;;5.15;;
40595;SDS011;26304;48.794;9.820;2022-12-18T02:25:33;5.72;;;5.32;;
40595;SDS011;26304;48.794;9.820;2022-12-18T02:31:30;5.77;;;5.20;;
40595;SDS011;26304;48.794;9.820;2022-12-18T02:37:18;5.72;;;5.32;;
40595;SDS011;26304;48.794;9.820;2022-12-18T02:43:03;5.80;;;5.30;;
40595;SDS011;26304;48.794;9.820;2022-12-18T02:48:50;6.13;;;5.53;;
40595;SDS011;26304;48.794;9.820;2022-12-18T03:00:48;5.37;;;4.97;;
40595;SDS011;26304;48.794;9.820;2022-12-18T03:06:40;5.37;;;4.97;;
40595;SDS011;26304;48.794;9.820;2022-12-18T03:12:28;5.95;;;5.45;;
40595;SDS011;26304;48.794;9.820;2022-12-18T03:18:15;5.20;;;4.70;;
40595;SDS011;26304;48.794;9.820;2022-12-18T03:24:00;5.53;;;5.03;;
40595;SDS011;26304;48.794;9.820;2022-12-18T03:29:48;5.67;;;5.17;;
40595;SDS011;26304;48.794;9.820;2022-12-18T03:35:36;5.40;;;4.90;;
40595;SDS011;26304;48.794;9.820;2022-12-18T03:41:24;5.17;;;4.77;;
40595;SDS011;26304;48.794;9.820;2022-12-18T03:47:14;5.27;;;4.87;;
40595;SDS011;26304;48.794;9.820;2022-12-18T03:53:00;5.97;;;5.47;;
40595;SDS011;26304;48.794;9.820;2022-12-18T03:58:52;4.77;;;4.37;;
40595;SDS011;26304;48.794;9.820;2022-12-18T04:04:37;4.93;;;4.53;;
40595;SDS011;26304;48.794;9.820;2022-12-18T04:10:21;4.60;;;4.20;;
40595;SDS011;26304;48.794;9.820;2022-12-18T04:16:06;4.70;;;4.30;;
40595;SDS011;26304;48.794;9.820;2022-12-18T04:21:50;5.00;;;4.60;;
40595;SDS011;26304;48.794;9.820;2022-12-18T04:27:32;4.40;;;4.00;;
40595;SDS011;26304;48.794;9.820;2022-12-18T04:33:16;4.20;;;3.90;;
40595;SDS011;26304;48.794;9.820;2022-12-18T04:38:58;5.05;;;4.55;;
40595;SDS011;26304;48.794;9.820;2022-12-18T04:44:40;4.28;;;3.97;;
40595;SDS011;26304;48.794;9.820;2022-12-18T04:50:24;4.22;;;3.92;;
40595;SDS011;26304;48.794;9.820;2022-12-18T04:56:07;4.30;;;3.92;;
40595;SDS011;26304;48.794;9.820;2022-12-18T05:01:51;4.30;;;4.00;;
40595;SDS011;26304;48.794;9.820;2022-12-18T05:07:35;3.75;;;3.45;;
40595;SDS011;26304;48.794;9.820;2022-12-18T05:13:17;4.75;;;4.20;;
40595;SDS011;26304;48.794;9.820;2022-12-18T05:19:00;3.97;;;3.65;;
40595;SDS011;26304;48.794;9.820;2022-12-18T05:24:44;3.85;;;3.55;;
40595;SDS011;26304;48.794;9.820;2022-12-18T05:30:26;3.90;;;3.13;;
40595;SDS011;26304;48.794;9.820;2022-12-18T05:36:09;3.83;;;3.53;;
40595;SDS011;26304;48.794;9.820;2022-12-18T05:41:54;3.75;;;3.45;;
40595;SDS011;26304;48.794;9.820;2022-12-18T05:47:36;3.75;;;3.42;;
40595;SDS011;26304;48.794;9.820;2022-12-18T05:53:19;4.18;;;3.45;;
40595;SDS011;26304;48.794;9.820;2022-12-18T05:59:03;5.57;;;3.75;;
40595;SDS011;26304;48.794;9.820;2022-12-18T06:04:46;3.83;;;3.30;;
40595;SDS011;26304;48.794;9.820;2022-12-18T06:10:28;3.90;;;3.60;;
40595;SDS011;26304;48.794;9.820;2022-12-18T06:16:12;4.18;;;3.20;;
40595;SDS011;26304;48.794;9.820;2022-12-18T06:21:54;3.55;;;3.22;;
40595;SDS011;26304;48.794;9.820;2022-12-18T06:27:39;5.75;;;3.65;;
40595;SDS011;26304;48.794;9.820;2022-12-18T06:33:25;5.13;;;3.80;;
40595;SDS011;26304;48.794;9.820;2022-12-18T06:39:08;4.13;;;3.20;;
40595;SDS011;26304;48.794;9.820;2022-12-18T06:44:51;4.85;;;3.42;;
40595;SDS011;26304;48.794;9.820;2022-12-18T06:50:34;4.88;;;3.63;;
40595;SDS011;26304;48.794;9.820;2022-12-18T06:56:17;3.50;;;3.20;;
40595;SDS011;26304;48.794;9.820;2022-12-18T07:01:59;3.97;;;3.22;;
40595;SDS011;26304;48.794;9.820;2022-12-18T07:07:43;3.50;;;3.20;;
40595;SDS011;26304;48.794;9.820;2022-12-18T07:13:25;4.90;;;3.10;;
40595;SDS011;26304;48.794;9.820;2022-12-18T07:19:08;3.88;;;3.28;;
40595;SDS011;26304;48.794;9.820;2022-12-18T07:24:52;3.70;;;3.10;;
40595;SDS011;26304;48.794;9.820;2022-12-18T07:30:36;4.15;;;3.35;;
40595;SDS011;26304;48.794;9.820;2022-12-18T07:36:19;3.25;;;2.95;;
40595;SDS011;26304;48.794;9.820;2022-12-18T07:42:03;3.58;;;2.72;;
40595;SDS011;26304;48.794;9.820;2022-12-18T07:48:03;3.40;;;3.10;;
40595;SDS011;26304;48.794;9.820;2022-12-18T07:53:46;4.50;;;4.10;;
40595;SDS011;26304;48.794;9.820;2022-12-18T07:59:30;3.20;;;2.90;;
40595;SDS011;26304;48.794;9.820;2022-12-18T08:05:12;3.45;;;3.15;;
40595;SDS011;26304;48.794;9.820;2022-12-18T08:10:55;4.10;;;3.15;;
40595;SDS011;26304;48.794;9.820;2022-12-18T08:16:39;3.45;;;3.13;;
40595;SDS011;26304;48.794;9.820;2022-12-18T08:22:21;3.15;;;2.85;;
40595;SDS011;26304;48.794;9.820;2022-12-18T08:28:03;4.43;;;3.00;;
40595;SDS011;26304;48.794;9.820;2022-12-18T08:33:49;2.97;;;2.70;;
40595;SDS011;26304;48.794;9.820;2022-12-18T08:39:32;3.33;;;3.00;;
40595;SDS011;26304;48.794;9.820;2022-12-18T08:45:15;3.08;;;2.88;;
40595;SDS011;26304;48.794;9.820;2022-12-18T08:50:59;2.90;;;2.60;;
40595;SDS011;26304;48.794;9.820;2022-12-18T08:56:42;2.97;;;2.78;;
40595;SDS011;26304;48.794;9.820;2022-12-18T09:02:24;3.10;;;2.83;;
40595;SDS011;26304;48.794;9.820;2022-12-18T09:08:08;3.33;;;2.60;;
40595;SDS011;26304;48.794;9.820;2022-12-18T09:13:51;2.97;;;2.78;;
40595;SDS011;26304;48.794;9.820;2022-12-18T09:19:34;3.05;;;2.75;;
40595;SDS011;26304;48.794;9.820;2022-12-18T09:25:18;2.72;;;2.13;;
40595;SDS011;26304;48.794;9.820;2022-12-18T09:31:03;2.60;;;2.40;;
40595;SDS011;26304;48.794;9.820;2022-12-18T09:36:48;2.85;;;2.55;;
40595;SDS011;26304;48.794;9.820;2022-12-18T09:42:32;3.75;;;3.45;;
40595;SDS011;26304;48.794;9.820;2022-12-18T09:48:15;5.30;;;4.20;;
40595;SDS011;26304;48.794;9.820;2022-12-18T09:54:03;6.78;;;4.00;;
40595;SDS011;26304;48.794;9.820;2022-12-18T09:59:50;5.15;;;3.70;;
40595;SDS011;26304;48.794;9.820;2022-12-18T10:05:37;4.10;;;3.70;;
40595;SDS011;26304;48.794;9.820;2022-12-18T10:11:30;4.10;;;3.70;;
40595;SDS011;26304;48.794;9.820;2022-12-18T10:17:26;3.92;;;3.63;;
40595;SDS011;26304;48.794;9.820;2022-12-18T10:23:17;3.75;;;3.45;;
40595;SDS011;26304;48.794;9.820;2022-12-18T10:29:07;3.90;;;3.60;;
40595;SDS011;26304;48.794;9.820;2022-12-18T10:34:54;3.70;;;3.22;;
40595;SDS011;26304;48.794;9.820;2022-12-18T10:40:47;3.58;;;3.28;;
40595;SDS011;26304;48.794;9.820;2022-12-18T10:46:31;3.50;;;3.20;;
40595;SDS011;26304;48.794;9.820;2022-12-18T10:52:15;4.28;;;3.58;;
40595;SDS011;26304;48.794;9.820;2022-12-18T10:58:13;5.53;;;3.47;;
40595;SDS011;26304;48.794;9.820;2022-12-18T11:04:07;8.63;;;3.35;;
40595;SDS011;26304;48.794;9.820;2022-12-18T11:10:03;7.18;;;3.22;;
40595;SDS011;26304;48.794;9.820;2022-12-18T11:15:46;4.55;;;3.38;;
40595;SDS011;26304;48.794;9.820;2022-12-18T11:21:29;3.25;;;2.60;;
40595;SDS011;26304;48.794;9.820;2022-12-18T11:27:16;5.38;;;3.20;;
40595;SDS011;26304;48.794;9.820;2022-12-18T11:33:01;3.17;;;2.90;;
40595;SDS011;26304;48.794;9.820;2022-12-18T11:38:47;3.17;;;2.88;;
40595;SDS011;26304;48.794;9.820;2022-12-18T11:44:35;5.85;;;2.30;;
40595;SDS011;26304;48.794;9.820;2022-12-18T11:50:23;6.78;;;3.15;;
40595;SDS011;26304;48.794;9.820;2022-12-18T11:56:12;5.25;;;2.30;;
40595;SDS011;26304;48.794;9.820;2022-12-18T12:02:17;3.70;;;2.70;;
40595;SDS011;26304;48.794;9.820;2022-12-18T12:08:15;5.68;;;2.75;;
40595;SDS011;26304;48.794;9.820;2022-12-18T12:14:24;4.05;;;2.67;;
40595;SDS011;26304;48.794;9.820;2022-12-18T12:20:21;2.97;;;2.50;;
40595;SDS011;26304;48.794;9.820;2022-12-18T12:26:11;2.75;;;2.50;;
40595;SDS011;26304;48.794;9.820;2022-12-18T12:32:01;3.25;;;2.17;;
40595;SDS011;26304;48.794;9.820;2022-12-18T12:37:58;2.45;;;2.25;;
40595;SDS011;26304;48.794;9.820;2022-12-18T12:43:47;2.50;;;2.30;;
40595;SDS011;26304;48.794;9.820;2022-12-18T12:49:31;3.25;;;2.05;;
40595;SDS011;26304;48.794;9.820;2022-12-18T12:55:17;4.25;;;2.42;;
40595;SDS011;26304;48.794;9.820;2022-12-18T13:01:10;2.22;;;2.03;;
40595;SDS011;26304;48.794;9.820;2022-12-18T13:07:00;1.95;;;1.85;;
40595;SDS011;26304;48.794;9.820;2022-12-18T13:12:53;2.28;;;2.03;;
40595;SDS011;26304;48.794;9.820;2022-12-18T13:18:40;2.97;;;2.15;;
40595;SDS011;26304;48.794;9.820;2022-12-18T13:24:31;2.83;;;1.83;;
40595;SDS011;26304;48.794;9.820;2022-12-18T13:36:30;2.22;;;2.03;;
40595;SDS011;26304;48.794;9.820;2022-12-18T13:48:41;1.83;;;1.73;;
40595;SDS011;26304;48.794;9.820;2022-12-18T13:54:33;1.85;;;1.75;;
40595;SDS011;26304;48.794;9.820;2022-12-18T14:00:23;10.65;;;6.30;;
40595;SDS011;26304;48.794;9.820;2022-12-18T14:06:10;5.03;;;4.63;;
40595;SDS011;26304;48.794;9.820;2022-12-18T14:11:55;5.10;;;4.68;;
40595;SDS011;26304;48.794;9.820;2022-12-18T14:18:00;5.35;;;4.85;;
40595;SDS011;26304;48.794;9.820;2022-12-18T14:23:45;6.07;;;4.60;;
40595;SDS011;26304;48.794;9.820;2022-12-18T14:29:29;9.20;;;4.47;;
40595;SDS011;26304;48.794;9.820;2022-12-18T14:35:13;4.20;;;3.80;;
40595;SDS011;26304;48.794;9.820;2022-12-18T14:41:00;3.70;;;3.33;;
40595;SDS011;26304;48.794;9.820;2022-12-18T14:46:44;3.83;;;3.50;;
40595;SDS011;26304;48.794;9.820;2022-12-18T14:52:28;3.45;;;3.15;;
40595;SDS011;26304;48.794;9.820;2022-12-18T14:58:15;3.67;;;2.88;;
40595;SDS011;26304;48.794;9.820;2022-12-18T15:03:59;3.30;;;3.00;;
40595;SDS011;26304;48.794;9.820;2022-12-18T15:10:00;3.20;;;2.90;;
40595;SDS011;26304;48.794;9.820;2022-12-18T15:15:47;3.22;;;2.70;;
40595;SDS011;26304;48.794;9.820;2022-12-18T15:21:31;2.85;;;2.65;;
40595;SDS011;26304;48.794;9.820;2022-12-18T15:27:22;3.05;;;2.40;;
40595;SDS011;26304;48.794;9.820;2022-12-18T15:33:22;2.92;;;2.72;;
40595;SDS011;26304;48.794;9.820;2022-12-18T15:39:10;2.58;;;2.40;;
40595;SDS011;26304;48.794;9.820;2022-12-18T15:44:53;2.80;;;2.60;;
40595;SDS011;26304;48.794;9.820;2022-12-18T15:50:37;2.65;;;2.20;;
40595;SDS011;26304;48.794;9.820;2022-12-18T15:56:25;3.35;;;2.17;;
40595;SDS011;26304;48.794;9.820;2022-12-18T16:02:26;3.08;;;2.80;;
40595;SDS011;26304;48.794;9.820;2022-12-18T16:08:11;2.83;;;2.60;;
40595;SDS011;26304;48.794;9.820;2022-12-18T16:13:53;2.97;;;2.67;;
40595;SDS011;26304;48.794;9.820;2022-12-18T16:19:36;2.25;;;2.05;;
40595;SDS011;26304;48.794;9.820;2022-12-18T16:25:24;2.58;;;2.38;;
40595;SDS011;26304;48.794;9.820;2022-12-18T16:31:08;1.80;;;1.70;;
40595;SDS011;26304;48.794;9.820;2022-12-18T16:36:50;2.40;;;2.20;;
40595;SDS011;26304;48.794;9.820;2022-12-18T16:42:36;2.10;;;2.00;;
40595;SDS011;26304;48.794;9.820;2022-12-18T16:48:23;2.22;;;2.13;;
40595;SDS011;26304;48.794;9.820;2022-12-18T16:54:05;2.70;;;1.90;;
40595;SDS011;26304;48.794;9.820;2022-12-18T16:59:51;2.55;;;2.17;;
40595;SDS011;26304;48.794;9.820;2022-12-18T17:05:34;3.55;;;1.98;;
40595;SDS011;26304;48.794;9.820;2022-12-18T17:11:17;3.25;;;2.25;;
40595;SDS011;26304;48.794;9.820;2022-12-18T17:17:04;3.22;;;2.30;;
40595;SDS011;26304;48.794;9.820;2022-12-18T17:22:47;3.58;;;2.30;;
40595;SDS011;26304;48.794;9.820;2022-12-18T17:28:29;2.67;;;2.47;;
40595;SDS011;26304;48.794;9.820;2022-12-18T17:34:14;4.38;;;2.45;;
40595;SDS011;26304;48.794;9.820;2022-12-18T17:40:22;3.50;;;2.72;;
40595;SDS011;26304;48.794;9.820;2022-12-18T17:46:05;4.38;;;2.65;;
40595;SDS011;26304;48.794;9.820;2022-12-18T17:52:05;2.83;;;2.35;;
40595;SDS011;26304;48.794;9.820;2022-12-18T17:57:51;3.28;;;2.83;;
40595;SDS011;26304;48.794;9.820;2022-12-18T18:03:35;4.13;;;3.03;;
40595;SDS011;26304;48.794;9.820;2022-12-18T18:09:19;2.80;;;2.60;;
40595;SDS011;26304;48.794;9.820;2022-12-18T18:15:02;5.55;;;2.42;;
40595;SDS011;26304;48.794;9.820;2022-12-18T18:20:44;4.80;;;3.22;;
40595;SDS011;26304;48.794;9.820;2022-12-18T18:26:28;4.00;;;3.03;;
40595;SDS011;26304;48.794;9.820;2022-12-18T18:32:12;4.05;;;3.50;;
40595;SDS011;26304;48.794;9.820;2022-12-18T18:37:54;4.28;;;3.40;;
40595;SDS011;26304;48.794;9.820;2022-12-18T18:43:38;3.17;;;2.85;;
40595;SDS011;26304;48.794;9.820;2022-12-18T18:49:20;6.00;;;3.15;;
40595;SDS011;26304;48.794;9.820;2022-12-18T18:55:04;5.07;;;3.00;;
40595;SDS011;26304;48.794;9.820;2022-12-18T19:00:54;5.95;;;2.80;;
40595;SDS011;26304;48.794;9.820;2022-12-18T19:06:41;6.60;;;3.00;;
40595;SDS011;26304;48.794;9.820;2022-12-18T19:12:26;5.47;;;3.30;;
40595;SDS011;26304;48.794;9.820;2022-12-18T19:18:27;5.47;;;3.40;;
40595;SDS011;26304;48.794;9.820;2022-12-18T19:24:10;4.28;;;3.33;;
40595;SDS011;26304;48.794;9.820;2022-12-18T19:29:52;3.40;;;3.00;;
40595;SDS011;26304;48.794;9.820;2022-12-18T19:35:36;6.13;;;3.30;;
40595;SDS011;26304;48.794;9.820;2022-12-18T19:41:18;5.45;;;3.22;;
40595;SDS011;26304;48.794;9.820;2022-12-18T19:47:02;4.97;;;3.30;;
40595;SDS011;26304;48.794;9.820;2022-12-18T19:52:46;3.92;;;2.92;;
40595;SDS011;26304;48.794;9.820;2022-12-18T19:58:28;4.05;;;2.88;;
40595;SDS011;26304;48.794;9.820;2022-12-18T20:04:10;5.35;;;3.72;;
40595;SDS011;26304;48.794;9.820;2022-12-18T20:09:54;5.65;;;3.50;;
40595;SDS011;26304;48.794;9.820;2022-12-18T20:15:37;4.68;;;3.35;;
40595;SDS011;26304;48.794;9.820;2022-12-18T20:21:19;13.97;;;12.37;;
40595;SDS011;26304;48.794;9.820;2022-12-18T20:27:03;16.48;;;14.98;;
40595;SDS011;26304;48.794;9.820;2022-12-18T20:32:45;18.45;;;16.55;;
40595;SDS011;26304;48.794;9.820;2022-12-18T20:38:28;18.23;;;16.33;;
40595;SDS011;26304;48.794;9.820;2022-12-18T20:44:12;19.08;;;16.58;;
40595;SDS011;26304;48.794;9.820;2022-12-18T20:49:57;16.67;;;14.98;;
40595;SDS011;26304;48.794;9.820;2022-12-18T20:55:40;17.00;;;15.23;;
40595;SDS011;26304;48.794;9.820;2022-12-18T21:01:26;14.93;;;12.63;;
40595;SDS011;26304;48.794;9.820;2022-12-18T21:07:11;13.43;;;11.70;;
40595;SDS011;26304;48.794;9.820;2022-12-18T21:12:54;11.55;;;10.38;;
40595;SDS011;26304;48.794;9.820;2022-12-18T21:18:38;11.40;;;10.30;;
40595;SDS011;26304;48.794;9.820;2022-12-18T21:24:21;11.77;;;10.57;;
40595;SDS011;26304;48.794;9.820;2022-12-18T21:30:04;10.63;;;9.63;;
40595;SDS011;26304;48.794;9.820;2022-12-18T21:35:48;10.05;;;9.07;;
40595;SDS011;26304;48.794;9.820;2022-12-18T21:41:31;10.82;;;9.60;;
40595;SDS011;26304;48.794;9.820;2022-12-18T21:47:31;10.68;;;9.13;;
40595;SDS011;26304;48.794;9.820;2022-12-18T21:53:14;9.18;;;8.30;;
40595;SDS011;26304;48.794;9.820;2022-12-18T21:58:57;9.65;;;7.88;;
40595;SDS011;26304;48.794;9.820;2022-12-18T22:04:39;7.93;;;7.10;;
40595;SDS011;26304;48.794;9.820;2022-12-18T22:10:23;8.43;;;7.40;;
40595;SDS011;26304;48.794;9.820;2022-12-18T22:16:06;7.53;;;6.82;;
40595;SDS011;26304;48.794;9.820;2022-12-18T22:21:48;7.00;;;6.35;;
40595;SDS011;26304;48.794;9.820;2022-12-18T22:27:32;6.53;;;5.82;;
40595;SDS011;26304;48.794;9.820;2022-12-18T22:33:15;7.72;;;6.38;;
40595;SDS011;26304;48.794;9.820;2022-12-18T22:38:57;6.25;;;5.68;;
40595;SDS011;26304;48.794;9.820;2022-12-18T22:44:41;6.43;;;5.82;;
40595;SDS011;26304;48.794;9.820;2022-12-18T22:50:24;6.30;;;5.70;;
40595;SDS011;26304;48.794;9.820;2022-12-18T22:56:06;6.72;;;5.80;;
40595;SDS011;26304;48.794;9.820;2022-12-18T23:01:50;6.57;;;5.43;;
40595;SDS011;26304;48.794;9.820;2022-12-18T23:07:33;6.07;;;5.50;;
40595;SDS011;26304;48.794;9.820;2022-12-18T23:13:16;5.88;;;5.28;;
40595;SDS011;26304;48.794;9.820;2022-12-18T23:18:59;5.60;;;5.10;;
40595;SDS011;26304;48.794;9.820;2022-12-18T23:24:43;5.80;;;5.03;;
40595;SDS011;26304;48.794;9.820;2022-12-18T23:30:25;5.30;;;4.80;;
40595;SDS011;26304;48.794;9.820;2022-12-18T23:36:09;4.88;;;4.47;;
40595;SDS011;26304;48.794;9.820;2022-12-18T23:41:52;5.18;;;4.68;;
40595;SDS011;26304;48.794;9.820;2022-12-18T23:47:34;5.22;;;4.72;;
40595;SDS011;26304;48.794;9.820;2022-12-18T23:53:18;4.97;;;4.57;;
40595;SDS011;26304;48.794;9.820;2022-12-18T23:59:00;5.97;;;4.93;;
